Hamilton, New York
Current Conditions -  °F | °C
As of 10:53 AM on Thursday 30 Oct 2014 (Local Time) from KRME Reporting Station
Light Rain Light Rain  
Wind Chill:   Ceiling: 3200
Heat Index:   Visibility: 10mi
Dew Point:   Wind: 9mph
Humidity: 82%   Direction: 280°W
Pressure: 30.03"   Gusts: NA
Location:  42.83°N, 75.54°W
Report Text: KRME 301453Z 28008KT 10SM -RA OVC032 07/04 A3003 RMK AO2 RAE04B39 SLP169 P0000 60000 T00720044 51008
Loading
Personal Weather Stations






























Interactive Weather Map
Tropical Storm Tracking
New forecast layout! Learn more

10-Day Weather Forecast

Advertisements
Track Severe Weather on mobile